createdAt,value
2023-10-06T00:01:04.495Z,1.00
2023-10-06T00:03:31.019Z,1.00
2023-10-06T00:05:57.675Z,0.80
2023-10-06T00:08:33.161Z,1.00
2023-10-06T00:11:11.803Z,0.60
2023-10-06T00:13:39.080Z,0.70
2023-10-06T00:16:08.723Z,0.50
2023-10-06T00:18:38.383Z,0.60
2023-10-06T00:21:15.689Z,0.50
2023-10-06T00:23:45.903Z,0.50
2023-10-06T00:26:13.575Z,0.95
2023-10-06T00:28:40.608Z,0.50
2023-10-06T00:31:10.330Z,0.52
2023-10-06T00:33:39.479Z,0.50
2023-10-06T00:36:18.552Z,0.30
2023-10-06T00:38:46.760Z,0.30
2023-10-06T00:41:15.668Z,0.20
2023-10-06T00:43:45.071Z,0.65
2023-10-06T00:46:12.622Z,0.90
2023-10-06T00:48:40.074Z,0.90
2023-10-06T00:51:23.354Z,0.90
2023-10-06T00:53:53.462Z,1.15
2023-10-06T00:56:24.415Z,1.00
2023-10-06T00:58:51.561Z,0.93
2023-10-06T01:01:18.760Z,0.70
2023-10-06T01:03:49.366Z,0.70
2023-10-06T01:06:18.835Z,0.85
2023-10-06T01:08:49.468Z,1.00
2023-10-06T01:11:18.927Z,0.90
2023-10-06T01:13:57.013Z,0.80
2023-10-06T01:16:27.772Z,0.90
2023-10-06T01:18:54.221Z,0.80
2023-10-06T01:21:29.680Z,0.80
2023-10-06T01:23:59.407Z,0.43
2023-10-06T01:26:25.918Z,0.25
2023-10-06T01:28:52.483Z,0.30
2023-10-06T01:31:21.074Z,0.20
2023-10-06T01:33:47.983Z,0.20
2023-10-06T01:36:23.056Z,0.13
2023-10-06T01:38:49.967Z,0.20
2023-10-06T01:41:16.318Z,0.30
2023-10-06T01:43:43.188Z,0.30
2023-10-06T01:46:13.750Z,0.55
2023-10-06T01:48:40.216Z,0.73
2023-10-06T01:51:10.881Z,0.50
2023-10-06T01:53:40.297Z,0.40
2023-10-06T01:56:08.965Z,0.30
2023-10-06T01:58:38.638Z,0.40
2023-10-06T02:01:07.276Z,0.17
2023-10-06T02:03:39.225Z,0.20
2023-10-06T02:06:05.693Z,0.20
2023-10-06T02:08:32.844Z,0.38
2023-10-06T02:11:02.756Z,0.30
2023-10-06T02:13:31.069Z,0.20
2023-10-06T02:15:59.857Z,0.40
2023-10-06T02:18:40.821Z,0.52
2023-10-06T02:21:10.724Z,0.73
2023-10-06T02:23:41.529Z,0.60
2023-10-06T02:26:09.929Z,0.90
2023-10-06T02:28:41.677Z,1.00
2023-10-06T02:31:08.328Z,0.68
2023-10-06T02:33:37.430Z,0.70
2023-10-06T02:36:16.789Z,0.60
2023-10-06T02:38:47.876Z,0.40
2023-10-06T02:41:21.817Z,0.40
2023-10-06T02:43:49.040Z,0.30
2023-10-06T02:46:16.991Z,0.60
2023-10-06T02:48:49.966Z,0.65
2023-10-06T02:51:19.815Z,0.40
2023-10-06T02:53:51.194Z,0.85
2023-10-06T02:56:22.886Z,0.68
2023-10-06T02:58:52.260Z,0.50
2023-10-06T03:01:18.916Z,0.47
2023-10-06T03:03:45.334Z,0.70
2023-10-06T03:06:12.366Z,0.52
2023-10-06T03:08:38.861Z,0.52
2023-10-06T03:11:05.481Z,0.80
2023-10-06T03:13:37.634Z,0.60
2023-10-06T03:16:12.218Z,0.50
2023-10-06T03:18:39.548Z,0.80
2023-10-06T03:21:14.903Z,0.60
2023-10-06T03:23:45.275Z,0.68
2023-10-06T03:26:38.212Z,0.95
2023-10-06T03:29:12.435Z,0.98
2023-10-06T03:31:48.493Z,0.90
2023-10-06T03:34:18.853Z,0.80
2023-10-06T03:37:05.971Z,0.60
2023-10-06T03:39:39.601Z,0.50
2023-10-06T03:42:12.142Z,0.40
2023-10-06T03:44:38.522Z,0.40
2023-10-06T03:47:09.010Z,0.30
2023-10-06T03:49:36.512Z,0.40
2023-10-06T03:52:04.239Z,0.20
2023-10-06T03:54:31.030Z,0.13
2023-10-06T03:56:57.377Z,0.17
2023-10-06T03:59:24.634Z,0.25
2023-10-06T04:01:52.750Z,0.30
2023-10-06T04:04:23.399Z,0.50
2023-10-06T04:06:50.288Z,0.40
2023-10-06T04:09:28.831Z,0.50
2023-10-06T04:11:55.948Z,0.30
2023-10-06T04:14:22.324Z,0.30
2023-10-06T04:16:51.504Z,0.20
2023-10-06T04:19:17.979Z,0.28
2023-10-06T04:21:44.544Z,0.20
2023-10-06T04:24:11.279Z,0.32
2023-10-06T04:26:37.987Z,0.30
2023-10-06T04:29:05.661Z,0.22
2023-10-06T04:31:32.543Z,0.20
2023-10-06T04:33:59.291Z,0.30
2023-10-06T04:36:26.136Z,0.60
2023-10-06T04:38:52.522Z,0.55
2023-10-06T04:43:47.788Z,0.25
2023-10-06T04:46:14.680Z,0.68
2023-10-06T04:48:41.232Z,0.50
2023-10-06T04:51:10.273Z,0.50
2023-10-06T04:53:37.515Z,0.52
2023-10-06T04:56:05.128Z,0.73
2023-10-06T04:58:31.726Z,0.70
2023-10-06T05:01:01.197Z,0.70
2023-10-06T05:03:28.153Z,0.50
2023-10-06T05:05:57.479Z,0.40
2023-10-06T05:08:25.752Z,0.22
2023-10-06T05:10:53.391Z,0.20
2023-10-06T05:13:20.616Z,0.20
2023-10-06T05:15:47.092Z,0.20
2023-10-06T05:18:17.141Z,0.30
2023-10-06T05:20:43.834Z,0.20
2023-10-06T05:23:16.096Z,0.20
2023-10-06T05:25:48.651Z,0.10
2023-10-06T05:28:18.378Z,0.20
2023-10-06T05:30:45.550Z,0.50
2023-10-06T05:33:12.283Z,0.43
2023-10-06T05:35:42.374Z,0.52
2023-10-06T05:38:09.591Z,0.43
2023-10-06T05:40:37.541Z,0.60
2023-10-06T05:43:05.533Z,0.50
2023-10-06T05:45:32.000Z,0.40
2023-10-06T05:48:08.066Z,0.57
2023-10-06T05:50:36.646Z,0.40
2023-10-06T05:53:05.874Z,0.38
2023-10-06T05:55:36.440Z,1.00
2023-10-06T05:58:04.451Z,0.80
2023-10-06T06:00:32.128Z,0.60
2023-10-06T06:02:59.592Z,0.50
2023-10-06T06:05:30.641Z,0.40
2023-10-06T06:08:00.405Z,0.60
2023-10-06T06:10:29.857Z,0.80
2023-10-06T06:13:01.257Z,0.70
2023-10-06T06:15:27.827Z,0.88
2023-10-06T06:17:54.907Z,0.60
2023-10-06T06:20:23.516Z,0.60
2023-10-06T06:23:03.859Z,1.20
2023-10-06T06:25:30.763Z,0.95
2023-10-06T06:28:00.560Z,0.75
2023-10-06T06:30:27.654Z,0.75
2023-10-06T06:32:55.356Z,0.82
2023-10-06T06:35:22.665Z,1.00
2023-10-06T06:38:02.602Z,1.00
2023-10-06T06:40:32.573Z,0.90
2023-10-06T06:43:00.957Z,1.55
2023-10-06T06:45:29.397Z,2.10
2023-10-06T06:47:56.277Z,1.65
2023-10-06T06:50:22.809Z,1.60
2023-10-06T06:52:50.014Z,1.33
2023-10-06T06:55:16.839Z,1.40
2023-10-06T06:57:50.787Z,1.27
2023-10-06T07:00:25.652Z,1.20
2023-10-06T07:02:53.161Z,1.40
2023-10-06T07:05:20.518Z,1.50
2023-10-06T07:07:50.108Z,1.40
2023-10-06T07:10:20.941Z,1.52
2023-10-06T07:12:48.959Z,1.45
2023-10-06T07:15:21.363Z,1.42
2023-10-06T07:17:49.497Z,1.92
2023-10-06T07:20:34.296Z,2.00
2023-10-06T07:23:05.029Z,1.83
2023-10-06T07:25:32.459Z,2.00
2023-10-06T07:27:59.381Z,1.55
2023-10-06T07:30:28.014Z,1.40
2023-10-06T07:32:57.785Z,2.22
2023-10-06T07:35:44.937Z,1.77
2023-10-06T07:38:15.154Z,1.58
2023-10-06T07:40:43.576Z,1.08
2023-10-06T07:43:11.348Z,0.85
2023-10-06T07:45:37.936Z,0.90
2023-10-06T07:48:07.364Z,0.77
2023-10-06T07:50:35.748Z,0.85
2023-10-06T07:53:02.883Z,0.73
2023-10-06T07:55:29.404Z,1.52
2023-10-06T07:57:55.836Z,0.73
2023-10-06T08:00:28.910Z,1.38
2023-10-06T08:03:00.138Z,1.10
2023-10-06T08:05:28.644Z,1.27
2023-10-06T08:07:58.610Z,1.20
2023-10-06T08:10:25.204Z,0.90
2023-10-06T08:12:52.482Z,0.70
2023-10-06T08:15:20.614Z,0.30
2023-10-06T08:17:48.241Z,0.30
2023-10-06T08:20:16.359Z,0.30
2023-10-06T08:22:47.715Z,0.20
2023-10-06T08:25:25.954Z,0.20
2023-10-06T08:27:52.907Z,0.20
2023-10-06T08:30:22.605Z,0.20
2023-10-06T08:32:51.191Z,0.30
2023-10-06T08:35:18.003Z,1.10
2023-10-06T08:37:45.273Z,1.02
2023-10-06T08:40:18.584Z,1.48
2023-10-06T08:42:52.607Z,1.40
2023-10-06T08:45:23.382Z,1.60
2023-10-06T08:48:04.701Z,1.70
2023-10-06T08:50:33.162Z,2.08
2023-10-06T08:53:00.348Z,3.35
2023-10-06T08:55:28.802Z,2.60
2023-10-06T08:57:55.996Z,1.83
2023-10-06T09:00:25.076Z,1.45
2023-10-06T09:02:53.366Z,1.58
2023-10-06T09:05:20.173Z,1.67
2023-10-06T09:07:58.907Z,2.25
2023-10-06T09:10:27.769Z,2.35
2023-10-06T09:13:02.161Z,2.05
2023-10-06T09:15:31.732Z,1.95
2023-10-06T09:17:58.854Z,1.83
2023-10-06T09:20:38.270Z,2.08
2023-10-06T09:23:05.607Z,1.60
2023-10-06T09:25:47.396Z,1.88
2023-10-06T09:28:18.287Z,1.88
2023-10-06T09:30:51.328Z,1.92
2023-10-06T09:33:18.294Z,1.60
2023-10-06T09:35:44.664Z,2.28
2023-10-06T09:38:14.848Z,2.00
2023-10-06T09:40:42.863Z,2.05
2023-10-06T09:43:12.555Z,1.67
2023-10-06T09:45:41.460Z,2.35
2023-10-06T09:48:10.542Z,1.75
2023-10-06T09:50:38.867Z,2.00
2023-10-06T09:53:06.797Z,1.70
2023-10-06T09:55:33.853Z,2.13
2023-10-06T09:58:00.474Z,1.50
2023-10-06T10:00:31.090Z,2.00
2023-10-06T10:02:59.203Z,2.47
2023-10-06T10:05:26.028Z,2.30
2023-10-06T10:07:54.527Z,2.10
2023-10-06T10:10:23.659Z,2.05
2023-10-06T10:12:50.202Z,2.00
2023-10-06T10:15:17.392Z,2.00
2023-10-06T10:17:45.145Z,1.90
2023-10-06T10:20:13.993Z,1.80
2023-10-06T10:22:42.525Z,2.05
2023-10-06T10:27:39.018Z,2.13
2023-10-06T10:30:13.567Z,2.20
2023-10-06T10:32:43.440Z,1.30
2023-10-06T10:35:14.732Z,1.63
2023-10-06T10:37:56.779Z,1.17
2023-10-06T10:40:24.286Z,1.58
2023-10-06T10:42:54.797Z,1.40
2023-10-06T10:45:35.722Z,1.80
2023-10-06T10:48:05.899Z,2.00
2023-10-06T10:50:51.227Z,1.60
2023-10-06T10:53:22.227Z,2.22
2023-10-06T10:55:49.011Z,2.50
2023-10-06T10:58:34.371Z,2.20
2023-10-06T11:01:19.324Z,1.80
2023-10-06T11:04:05.683Z,1.30
2023-10-06T11:06:32.224Z,1.58
2023-10-06T11:08:59.096Z,2.08
2023-10-06T11:11:26.703Z,1.98
2023-10-06T11:14:06.901Z,2.10
2023-10-06T11:16:33.968Z,1.98
2023-10-06T11:19:00.540Z,1.70
2023-10-06T11:21:27.236Z,1.80
2023-10-06T11:23:54.684Z,1.90
2023-10-06T11:26:31.944Z,1.92
2023-10-06T11:29:01.527Z,1.98
2023-10-06T11:31:31.091Z,1.50
2023-10-06T11:33:57.509Z,2.10
2023-10-06T11:36:23.905Z,1.92
2023-10-06T11:38:51.804Z,1.70
2023-10-06T11:41:28.558Z,1.90
2023-10-06T11:43:55.910Z,1.77
2023-10-06T11:46:22.482Z,2.33
2023-10-06T11:48:49.265Z,2.30
2023-10-06T11:51:16.735Z,1.92
2023-10-06T11:53:43.200Z,1.50
2023-10-06T11:56:14.510Z,1.45
2023-10-06T12:01:47.376Z,1.50
2023-10-06T12:04:31.475Z,1.70
2023-10-06T12:07:00.050Z,1.90
2023-10-06T12:09:30.880Z,1.70
2023-10-06T12:12:00.471Z,2.13
2023-10-06T12:14:27.221Z,2.20
2023-10-06T12:16:55.860Z,2.22
2023-10-06T12:19:23.838Z,1.85
2023-10-06T12:21:51.131Z,2.13
2023-10-06T12:24:17.647Z,2.00
2023-10-06T12:26:47.918Z,2.10
2023-10-06T12:29:17.983Z,1.80
2023-10-06T12:31:45.667Z,2.30
2023-10-06T12:34:16.459Z,2.30
2023-10-06T12:36:48.154Z,2.40
2023-10-06T12:39:18.586Z,2.15
2023-10-06T12:41:47.729Z,1.98
2023-10-06T12:44:14.858Z,1.92
2023-10-06T12:46:41.682Z,1.90
2023-10-06T12:49:08.200Z,2.50
2023-10-06T12:51:35.466Z,2.47
2023-10-06T12:54:01.909Z,1.98
2023-10-06T12:56:29.423Z,2.15
2023-10-06T12:58:55.926Z,1.73
2023-10-06T13:01:22.399Z,2.05
2023-10-06T13:03:48.940Z,2.15
2023-10-06T13:06:16.922Z,1.90
2023-10-06T13:08:43.381Z,1.50
2023-10-06T13:11:11.666Z,1.77
2023-10-06T13:13:38.135Z,1.70
2023-10-06T13:16:09.776Z,1.60
2023-10-06T13:18:38.118Z,1.60
2023-10-06T13:21:09.380Z,1.77
2023-10-06T13:23:36.569Z,1.80
2023-10-06T13:26:03.283Z,1.88
2023-10-06T13:28:30.146Z,1.85
2023-10-06T13:30:56.535Z,1.98
2023-10-06T13:33:23.697Z,2.25
2023-10-06T13:35:50.210Z,1.58
2023-10-06T13:38:17.643Z,1.60
2023-10-06T13:40:46.409Z,2.13
2023-10-06T13:43:13.441Z,2.33
2023-10-06T13:45:44.465Z,1.55
2023-10-06T13:48:13.223Z,2.30
2023-10-06T13:50:41.390Z,1.70
2023-10-06T13:53:08.596Z,1.88
2023-10-06T13:55:35.731Z,1.75
2023-10-06T13:58:05.980Z,1.83
2023-10-06T14:00:41.901Z,1.45
2023-10-06T14:03:15.877Z,2.20
2023-10-06T14:05:43.128Z,1.63
2023-10-06T14:08:10.177Z,2.05
2023-10-06T14:10:39.647Z,2.35
2023-10-06T14:13:09.868Z,1.75
2023-10-06T14:15:42.549Z,1.70
2023-10-06T14:18:17.411Z,1.20
2023-10-06T14:20:46.551Z,1.70
2023-10-06T14:23:14.251Z,1.30
2023-10-06T14:25:41.709Z,1.27
2023-10-06T14:28:10.384Z,1.67
2023-10-06T14:30:41.106Z,1.60
2023-10-06T14:33:13.699Z,1.50
2023-10-06T14:35:58.855Z,1.75
2023-10-06T14:38:32.547Z,1.33
2023-10-06T14:41:18.805Z,1.88
2023-10-06T14:44:05.493Z,1.20
2023-10-06T14:46:35.377Z,2.20
2023-10-06T14:49:04.417Z,2.20
2023-10-06T14:51:31.422Z,2.15
2023-10-06T14:54:01.322Z,1.77
2023-10-06T14:56:28.122Z,1.77
2023-10-06T14:58:55.910Z,2.00
2023-10-06T15:01:25.765Z,1.30
2023-10-06T15:03:52.524Z,1.02
2023-10-06T15:06:20.275Z,1.60
2023-10-06T15:08:49.246Z,0.90
2023-10-06T15:11:18.057Z,0.80
2023-10-06T15:13:48.075Z,1.10
2023-10-06T15:16:20.136Z,0.80
2023-10-06T15:18:49.633Z,1.13
2023-10-06T15:21:17.384Z,2.15
2023-10-06T15:23:49.740Z,1.50
2023-10-06T15:26:19.302Z,1.60
2023-10-06T15:28:45.869Z,1.42
2023-10-06T15:31:13.169Z,1.00
2023-10-06T15:33:39.621Z,1.50
2023-10-06T15:36:06.123Z,1.20
2023-10-06T15:38:33.073Z,1.50
2023-10-06T15:41:05.936Z,1.10
2023-10-06T15:43:32.809Z,1.00
2023-10-06T15:46:00.507Z,1.17
2023-10-06T15:48:28.734Z,0.60
2023-10-06T15:50:58.935Z,0.90
2023-10-06T15:53:27.618Z,1.00
2023-10-06T15:55:54.333Z,1.02
2023-10-06T15:58:20.742Z,0.90
2023-10-06T16:00:47.443Z,0.93
2023-10-06T16:03:14.293Z,1.55
2023-10-06T16:05:40.719Z,1.40
2023-10-06T16:08:07.140Z,1.23
2023-10-06T16:10:35.594Z,1.08
2023-10-06T16:13:05.312Z,1.77
2023-10-06T16:15:31.737Z,1.75
2023-10-06T16:17:58.225Z,1.27
2023-10-06T16:20:30.376Z,1.00
2023-10-06T16:22:58.720Z,1.30
2023-10-06T16:25:25.820Z,1.33
2023-10-06T16:27:52.305Z,1.17
2023-10-06T16:30:19.595Z,0.70
2023-10-06T16:32:46.072Z,1.50
2023-10-06T16:35:12.546Z,2.10
2023-10-06T16:37:39.000Z,1.60
2023-10-06T16:40:05.702Z,1.50
2023-10-06T16:42:32.152Z,1.70
2023-10-06T16:44:58.706Z,2.00
2023-10-06T16:47:25.172Z,1.80
2023-10-06T16:49:51.768Z,1.88
2023-10-06T16:52:18.157Z,1.63
2023-10-06T16:54:44.613Z,1.95
2023-10-06T16:57:11.071Z,2.03
2023-10-06T16:59:38.225Z,2.10
2023-10-06T17:02:04.717Z,2.30
2023-10-06T17:04:31.073Z,2.22
2023-10-06T17:06:57.473Z,2.15
2023-10-06T17:09:32.187Z,1.85
2023-10-06T17:12:00.338Z,1.95
2023-10-06T17:14:27.344Z,1.83
2023-10-06T17:16:57.211Z,1.73
2023-10-06T17:19:23.663Z,3.03
2023-10-06T17:21:50.061Z,1.90
2023-10-06T17:24:17.292Z,1.85
2023-10-06T17:26:44.126Z,2.22
2023-10-06T17:29:12.098Z,2.33
2023-10-06T17:31:38.724Z,2.17
2023-10-06T17:34:08.309Z,2.20
2023-10-06T17:36:34.728Z,2.50
2023-10-06T17:39:03.817Z,2.30
2023-10-06T17:41:30.194Z,2.15
2023-10-06T17:43:58.333Z,2.35
2023-10-06T17:46:24.893Z,2.60
2023-10-06T17:48:52.007Z,2.47
2023-10-06T17:51:22.152Z,2.88
2023-10-06T17:53:49.211Z,2.22
2023-10-06T17:56:21.568Z,2.65
2023-10-06T17:58:48.124Z,2.75
2023-10-06T18:01:16.180Z,2.35
2023-10-06T18:03:43.948Z,2.70
2023-10-06T18:06:11.149Z,2.92
2023-10-06T18:08:37.767Z,1.95
2023-10-06T18:11:05.007Z,2.28
2023-10-06T18:13:31.555Z,3.50
2023-10-06T18:15:58.006Z,2.92
2023-10-06T18:18:24.479Z,3.40
2023-10-06T18:20:50.980Z,2.75
2023-10-06T18:23:17.480Z,2.70
2023-10-06T18:25:44.178Z,3.17
2023-10-06T18:28:10.770Z,3.20
2023-10-06T18:30:37.171Z,2.42
2023-10-06T18:33:04.445Z,2.65
2023-10-06T18:35:34.655Z,2.03
2023-10-06T18:38:01.016Z,2.58
2023-10-06T18:40:28.602Z,2.40
2023-10-06T18:42:55.572Z,1.95
2023-10-06T18:45:22.108Z,3.60
2023-10-06T18:47:48.929Z,3.08
2023-10-06T18:50:22.505Z,2.60
2023-10-06T18:52:49.429Z,2.83
2023-10-06T18:55:16.432Z,2.83
2023-10-06T18:57:43.016Z,2.58
2023-10-06T19:00:12.603Z,3.15
2023-10-06T19:02:40.707Z,2.55
2023-10-06T19:05:07.595Z,3.10
2023-10-06T19:07:34.370Z,2.72
2023-10-06T19:10:03.050Z,2.13
2023-10-06T19:12:29.811Z,2.45
2023-10-06T19:14:57.186Z,2.72
2023-10-06T19:17:24.047Z,3.28
2023-10-06T19:19:52.613Z,2.95
2023-10-06T19:22:19.286Z,2.90
2023-10-06T19:24:45.810Z,2.35
2023-10-06T19:27:12.515Z,2.80
2023-10-06T19:29:40.095Z,2.90
2023-10-06T19:32:06.863Z,4.25
2023-10-06T19:34:33.706Z,2.80
2023-10-06T19:37:00.275Z,3.03
2023-10-06T19:39:28.928Z,3.47
2023-10-06T19:41:57.271Z,3.53
2023-10-06T19:44:24.933Z,3.05
2023-10-06T19:46:51.385Z,2.85
2023-10-06T19:49:17.945Z,3.00
2023-10-06T19:51:45.818Z,3.30
2023-10-06T19:54:12.214Z,2.92
2023-10-06T19:56:38.642Z,2.92
2023-10-06T19:59:07.641Z,2.58
2023-10-06T20:01:34.703Z,3.00
2023-10-06T20:04:01.339Z,3.03
2023-10-06T20:06:27.762Z,3.05
2023-10-06T20:08:55.514Z,2.55
2023-10-06T20:11:22.739Z,3.08
2023-10-06T20:13:50.610Z,3.17
2023-10-06T20:16:17.640Z,3.13
2023-10-06T20:18:44.354Z,2.72
2023-10-06T20:21:12.844Z,3.05
2023-10-06T20:23:42.569Z,2.53
2023-10-06T20:26:08.990Z,2.65
2023-10-06T20:28:35.735Z,3.00
2023-10-06T20:31:04.928Z,3.20
2023-10-06T20:33:32.365Z,2.50
2023-10-06T20:35:59.038Z,2.45
2023-10-06T20:38:25.701Z,2.60
2023-10-06T20:40:52.309Z,2.05
2023-10-06T20:43:19.881Z,2.45
2023-10-06T20:45:46.490Z,2.75
2023-10-06T20:48:12.969Z,2.58
2023-10-06T20:50:42.457Z,2.25
2023-10-06T20:53:08.893Z,2.28
2023-10-06T20:55:35.909Z,2.92
2023-10-06T20:58:02.458Z,2.67
2023-10-06T21:00:28.949Z,2.13
2023-10-06T21:02:56.764Z,2.10
2023-10-06T21:05:23.662Z,2.50
2023-10-06T21:07:50.052Z,2.50
2023-10-06T21:10:17.696Z,2.55
2023-10-06T21:12:44.293Z,2.25
2023-10-06T21:15:11.885Z,1.90
2023-10-06T21:17:39.199Z,2.05
2023-10-06T21:20:08.536Z,2.80
2023-10-06T21:22:34.970Z,2.95
2023-10-06T21:25:01.507Z,2.30
2023-10-06T21:27:27.911Z,2.47
2023-10-06T21:29:54.270Z,2.42
2023-10-06T21:32:20.755Z,1.98
2023-10-06T21:34:47.198Z,2.08
2023-10-06T21:37:14.184Z,1.92
2023-10-06T21:39:40.709Z,2.72
2023-10-06T21:42:07.089Z,2.10
2023-10-06T21:44:33.489Z,1.98
2023-10-06T21:46:59.940Z,1.67
2023-10-06T21:49:26.488Z,2.13
2023-10-06T21:51:53.257Z,2.22
2023-10-06T21:54:19.928Z,1.83
2023-10-06T21:56:46.284Z,1.98
2023-10-06T21:59:13.644Z,2.72
2023-10-06T22:01:40.135Z,1.80
2023-10-06T22:04:07.258Z,2.55
2023-10-06T22:06:33.760Z,2.38
2023-10-06T22:09:00.143Z,2.15
2023-10-06T22:11:26.505Z,2.38
2023-10-06T22:13:53.061Z,2.42
2023-10-06T22:16:19.748Z,1.90
2023-10-06T22:18:46.460Z,2.30
2023-10-06T22:21:15.124Z,1.88
2023-10-06T22:23:47.193Z,2.20
2023-10-06T22:26:13.799Z,2.38
2023-10-06T22:28:40.284Z,1.70
2023-10-06T22:31:08.030Z,1.67
2023-10-06T22:33:34.650Z,2.33
2023-10-06T22:36:01.039Z,2.28
2023-10-06T22:38:27.493Z,2.10
2023-10-06T22:40:54.021Z,1.95
2023-10-06T22:43:20.519Z,2.22
2023-10-06T22:45:47.324Z,1.92
2023-10-06T22:48:13.920Z,2.28
2023-10-06T22:50:40.454Z,2.50
2023-10-06T22:53:07.473Z,2.40
2023-10-06T22:55:34.189Z,2.35
2023-10-06T22:58:00.568Z,2.50
2023-10-06T23:00:27.003Z,1.77
2023-10-06T23:02:54.906Z,2.03
2023-10-06T23:05:22.010Z,2.20
2023-10-06T23:07:48.963Z,1.98
2023-10-06T23:10:17.291Z,1.70
2023-10-06T23:12:53.128Z,1.58
2023-10-06T23:15:23.341Z,1.58
2023-10-06T23:17:50.777Z,2.00
2023-10-06T23:20:23.434Z,1.98
2023-10-06T23:23:00.034Z,1.90
2023-10-06T23:25:36.965Z,2.72
2023-10-06T23:28:06.342Z,2.55
2023-10-06T23:30:34.105Z,2.20
2023-10-06T23:33:01.190Z,2.00
2023-10-06T23:35:27.875Z,2.10
2023-10-06T23:37:57.144Z,1.80
2023-10-06T23:40:24.178Z,2.20
2023-10-06T23:42:56.860Z,1.65
2023-10-06T23:45:32.922Z,1.60
2023-10-06T23:48:00.208Z,1.95
2023-10-06T23:50:30.192Z,1.98
2023-10-06T23:53:01.214Z,1.60
2023-10-06T23:55:32.991Z,1.33
2023-10-06T23:58:01.375Z,1.50
